createdAt,value
2022-09-02T00:00:25.705Z,18.29
2022-09-02T00:01:24.734Z,18.29
2022-09-02T00:02:24.799Z,18.27
2022-09-02T00:03:25.619Z,18.26
2022-09-02T00:04:25.376Z,18.24
2022-09-02T00:05:24.724Z,18.22
2022-09-02T00:06:24.747Z,18.20
2022-09-02T00:07:26.675Z,18.20
2022-09-02T00:08:24.685Z,18.20
2022-09-02T00:09:24.665Z,18.19
2022-09-02T00:10:24.668Z,18.17
2022-09-02T00:11:25.297Z,18.17
2022-09-02T00:12:25.277Z,18.15
2022-09-02T00:13:24.645Z,18.14
2022-09-02T00:14:25.961Z,18.13
2022-09-02T00:15:25.254Z,18.12
2022-09-02T00:16:24.615Z,18.12
2022-09-02T00:17:24.546Z,18.10
2022-09-02T00:18:24.567Z,18.10
2022-09-02T00:19:25.203Z,18.09
2022-09-02T00:20:25.219Z,18.08
2022-09-02T00:21:26.505Z,18.07
2022-09-02T00:22:24.489Z,18.06
2022-09-02T00:23:25.536Z,18.04
2022-09-02T00:24:24.511Z,18.03
2022-09-02T00:25:24.510Z,18.02
2022-09-02T00:26:26.900Z,18.01
2022-09-02T00:27:24.432Z,18.00
2022-09-02T00:28:25.429Z,17.96
2022-09-02T00:29:24.411Z,17.95
2022-09-02T00:30:24.469Z,17.93
2022-09-02T00:31:25.212Z,17.91
2022-09-02T00:32:25.064Z,17.90
2022-09-02T00:33:24.374Z,17.88
2022-09-02T00:34:24.373Z,17.86
2022-09-02T00:35:25.043Z,17.84
2022-09-02T00:36:26.907Z,17.82
2022-09-02T00:37:25.013Z,17.80
2022-09-02T00:38:26.257Z,17.79
2022-09-02T00:39:24.516Z,17.77
2022-09-02T00:40:24.328Z,17.75
2022-09-02T00:41:24.974Z,17.74
2022-09-02T00:42:26.346Z,17.72
2022-09-02T00:43:26.265Z,17.70
2022-09-02T00:44:24.955Z,17.68
2022-09-02T00:45:24.287Z,17.67
2022-09-02T00:46:26.169Z,17.66
2022-09-02T00:47:24.903Z,17.64
2022-09-02T00:48:24.275Z,17.62
2022-09-02T00:49:26.667Z,17.61
2022-09-02T00:50:24.237Z,17.59
2022-09-02T00:51:24.857Z,17.59
2022-09-02T00:52:24.237Z,17.57
2022-09-02T00:53:24.208Z,17.55
2022-09-02T00:54:24.827Z,17.54
2022-09-02T00:55:24.819Z,17.53
2022-09-02T00:56:25.129Z,17.51
2022-09-02T00:57:24.179Z,17.50
2022-09-02T00:58:24.810Z,17.49
2022-09-02T00:59:24.770Z,17.48
2022-09-02T01:00:24.132Z,17.47
2022-09-02T01:01:25.101Z,17.46
2022-09-02T01:02:24.390Z,17.45
2022-09-02T01:03:24.739Z,17.44
2022-09-02T01:04:24.147Z,17.43
2022-09-02T01:05:24.702Z,17.42
2022-09-02T01:06:26.464Z,17.41
2022-09-02T01:07:23.992Z,17.41
2022-09-02T01:08:24.988Z,17.40
2022-09-02T01:09:24.676Z,17.39
2022-09-02T01:10:24.663Z,17.38
2022-09-02T01:11:24.642Z,17.37
2022-09-02T01:12:24.626Z,17.36
2022-09-02T01:13:23.944Z,17.35
2022-09-02T01:14:28.610Z,17.34
2022-09-02T01:15:24.620Z,17.34
2022-09-02T01:16:24.621Z,17.33
2022-09-02T01:17:23.895Z,17.33
2022-09-02T01:18:26.387Z,17.32
2022-09-02T01:19:23.883Z,17.33
2022-09-02T01:20:24.512Z,17.33
2022-09-02T01:21:23.905Z,17.32
2022-09-02T01:22:24.518Z,17.32
2022-09-02T01:23:23.854Z,17.32
2022-09-02T01:24:24.806Z,17.32
2022-09-02T01:25:24.496Z,17.32
2022-09-02T01:26:24.501Z,17.31
2022-09-02T01:27:24.467Z,17.31
2022-09-02T01:28:24.780Z,17.30
2022-09-02T01:29:24.449Z,17.30
2022-09-02T01:30:23.883Z,17.29
2022-09-02T01:31:24.478Z,17.29
2022-09-02T01:32:23.738Z,17.29
2022-09-02T01:33:25.295Z,17.28
2022-09-02T01:34:24.394Z,17.28
2022-09-02T01:35:24.380Z,17.28
2022-09-02T01:36:24.372Z,17.28
2022-09-02T01:37:24.652Z,17.28
2022-09-02T01:38:24.343Z,17.29
2022-09-02T01:39:23.650Z,17.29
2022-09-02T01:40:24.360Z,17.29
2022-09-02T01:41:25.571Z,17.29
2022-09-02T01:42:24.290Z,17.29
2022-09-02T01:43:24.293Z,17.30
2022-09-02T01:44:24.594Z,17.31
2022-09-02T01:45:26.004Z,17.31
2022-09-02T01:46:24.271Z,17.32
2022-09-02T01:47:24.252Z,17.32
2022-09-02T01:48:23.591Z,17.32
2022-09-02T01:49:24.223Z,17.33
2022-09-02T01:50:23.751Z,17.31
2022-09-02T01:51:24.216Z,17.32
2022-09-02T01:52:24.195Z,17.33
2022-09-02T01:53:23.621Z,17.32
2022-09-02T01:54:24.175Z,17.32
2022-09-02T01:55:25.928Z,17.32
2022-09-02T01:56:25.146Z,17.32
2022-09-02T01:57:24.395Z,17.32
2022-09-02T01:58:23.462Z,17.32
2022-09-02T01:59:24.124Z,17.32
2022-09-02T02:00:24.497Z,17.31
2022-09-02T02:01:23.469Z,17.31
2022-09-02T02:02:24.122Z,17.30
2022-09-02T02:03:24.078Z,17.30
2022-09-02T02:04:23.377Z,17.29
2022-09-02T02:05:23.387Z,17.29
2022-09-02T02:06:24.039Z,17.29
2022-09-02T02:07:24.029Z,17.28
2022-09-02T02:08:24.019Z,17.28
2022-09-02T02:09:24.025Z,17.28
2022-09-02T02:10:23.993Z,17.28
2022-09-02T02:11:23.989Z,17.28
2022-09-02T02:12:23.968Z,17.26
2022-09-02T02:13:24.040Z,17.27
2022-09-02T02:14:23.271Z,17.26
2022-09-02T02:16:00.126Z,17.21
2022-09-02T02:17:00.056Z,17.22
2022-09-02T02:18:00.058Z,17.23
2022-09-02T02:19:00.021Z,17.22
2022-09-02T02:20:00.940Z,17.22
2022-09-02T02:21:00.678Z,17.21
2022-09-02T02:21:59.989Z,17.19
2022-09-02T02:23:00.654Z,17.18
2022-09-02T02:24:00.629Z,17.18
2022-09-02T02:25:00.620Z,17.17
2022-09-02T02:26:00.618Z,17.16
2022-09-02T02:26:59.920Z,17.15
2022-09-02T02:28:00.602Z,17.13
2022-09-02T02:29:00.591Z,17.12
2022-09-02T02:30:00.573Z,17.11
2022-09-02T02:31:00.631Z,17.10
2022-09-02T02:31:59.883Z,17.09
2022-09-02T02:33:00.544Z,17.07
2022-09-02T02:33:59.852Z,17.06
2022-09-02T02:34:59.845Z,17.05
2022-09-02T02:35:59.855Z,17.03
2022-09-02T02:36:59.824Z,17.02
2022-09-02T02:38:02.867Z,17.02
2022-09-02T02:38:59.796Z,17.01
2022-09-02T02:39:59.805Z,16.99
2022-09-02T02:40:59.789Z,16.97
2022-09-02T02:41:59.824Z,16.97
2022-09-02T02:43:00.449Z,16.96
2022-09-02T02:43:59.754Z,16.95
2022-09-02T02:44:59.735Z,16.94
2022-09-02T02:45:59.728Z,16.93
2022-09-02T02:46:59.778Z,16.92
2022-09-02T02:47:59.756Z,16.91
2022-09-02T02:49:00.378Z,16.89
2022-09-02T02:49:59.698Z,16.87
2022-09-02T02:51:00.361Z,16.86
2022-09-02T02:52:00.338Z,16.85
2022-09-02T02:52:59.717Z,16.83
2022-09-02T02:54:00.307Z,16.82
2022-09-02T02:54:59.659Z,16.80
2022-09-02T02:55:59.639Z,16.80
2022-09-02T02:57:00.293Z,16.79
2022-09-02T02:58:00.290Z,16.77
2022-09-02T02:59:00.269Z,16.76
2022-09-02T02:59:59.719Z,16.75
2022-09-02T03:01:00.252Z,16.74
2022-09-02T03:02:00.380Z,16.73
2022-09-02T03:03:00.283Z,16.72
2022-09-02T03:03:59.552Z,16.72
2022-09-02T03:04:59.524Z,16.71
2022-09-02T03:05:59.550Z,16.71
2022-09-02T03:07:00.191Z,16.71
2022-09-02T03:08:00.931Z,16.70
2022-09-02T03:09:00.163Z,16.69
2022-09-02T03:10:00.176Z,16.69
2022-09-02T03:11:00.144Z,16.69
2022-09-02T03:11:59.484Z,16.68
2022-09-02T03:12:59.646Z,16.68
2022-09-02T03:14:01.054Z,16.68
2022-09-02T03:15:02.851Z,16.67
2022-09-02T03:15:59.649Z,16.67
2022-09-02T03:16:59.632Z,16.66
2022-09-02T03:18:00.072Z,16.65
2022-09-02T03:18:59.386Z,16.66
2022-09-02T03:20:00.057Z,16.66
2022-09-02T03:20:59.371Z,16.64
2022-09-02T03:22:00.026Z,16.63
2022-09-02T03:23:00.006Z,16.63
2022-09-02T03:24:00.050Z,16.62
2022-09-02T03:24:59.994Z,16.62
2022-09-02T03:25:59.396Z,16.61
2022-09-02T03:26:59.287Z,16.60
2022-09-02T03:27:59.297Z,16.58
2022-09-02T03:29:00.131Z,16.57
2022-09-02T03:29:59.941Z,16.56
2022-09-02T03:30:59.979Z,16.55
2022-09-02T03:31:59.227Z,16.53
2022-09-02T03:33:03.605Z,16.53
2022-09-02T03:34:00.928Z,16.52
2022-09-02T03:34:59.248Z,16.50
2022-09-02T03:36:00.198Z,16.49
2022-09-02T03:36:59.901Z,16.48
2022-09-02T03:37:59.179Z,16.48
2022-09-02T03:38:59.201Z,16.47
2022-09-02T03:39:59.220Z,16.45
2022-09-02T03:40:59.139Z,16.44
2022-09-02T03:41:59.180Z,16.44
2022-09-02T03:43:00.588Z,16.42
2022-09-02T03:43:59.134Z,16.41
2022-09-02T03:44:59.093Z,16.40
2022-09-02T03:45:59.831Z,16.38
2022-09-02T03:46:59.760Z,16.38
2022-09-02T03:47:59.106Z,16.37
2022-09-02T03:48:59.101Z,16.36
2022-09-02T03:49:59.725Z,16.35
2022-09-02T03:50:59.713Z,16.34
2022-09-02T03:51:59.053Z,16.33
2022-09-02T03:52:59.022Z,16.33
2022-09-02T03:53:59.681Z,16.32
2022-09-02T03:55:00.564Z,16.30
2022-09-02T03:55:59.905Z,16.29
2022-09-02T03:56:59.652Z,16.28
2022-09-02T03:57:59.662Z,16.27
2022-09-02T03:59:00.056Z,16.26
2022-09-02T03:59:59.056Z,16.24
2022-09-02T04:00:59.617Z,16.23
2022-09-02T04:01:59.662Z,16.22
2022-09-02T04:02:58.989Z,16.21
2022-09-02T04:04:01.220Z,16.20
2022-09-02T04:04:58.904Z,16.20
2022-09-02T04:05:59.547Z,16.19
2022-09-02T04:06:59.546Z,16.18
2022-09-02T04:07:58.848Z,16.17
2022-09-02T04:09:00.179Z,16.15
2022-09-02T04:09:59.515Z,16.15
2022-09-02T04:10:58.819Z,16.14
2022-09-02T04:11:58.859Z,16.12
2022-09-02T04:12:58.798Z,16.12
2022-09-02T04:13:58.779Z,16.10
2022-09-02T04:14:59.459Z,16.09
2022-09-02T04:16:01.831Z,16.07
2022-09-02T04:16:58.780Z,16.06
2022-09-02T04:17:59.440Z,16.05
2022-09-02T04:18:58.782Z,16.05
2022-09-02T04:19:58.740Z,16.03
2022-09-02T04:20:59.393Z,16.03
2022-09-02T04:21:58.704Z,16.01
2022-09-02T04:22:59.631Z,16.00
2022-09-02T04:23:59.352Z,15.99
2022-09-02T04:24:59.621Z,15.98
2022-09-02T04:25:58.641Z,15.97
2022-09-02T04:27:03.875Z,15.96
2022-09-02T04:28:00.315Z,15.95
2022-09-02T04:28:59.310Z,15.95
2022-09-02T04:29:59.294Z,15.94
2022-09-02T04:30:58.661Z,15.93
2022-09-02T04:31:59.274Z,15.93
2022-09-02T04:32:59.253Z,15.92
2022-09-02T04:33:58.654Z,15.92
2022-09-02T04:34:58.556Z,15.92
2022-09-02T04:35:59.224Z,15.92
2022-09-02T04:36:59.216Z,15.91
2022-09-02T04:37:58.534Z,15.91
2022-09-02T04:38:59.204Z,15.91
2022-09-02T04:39:59.185Z,15.90
2022-09-02T04:40:59.168Z,15.91
2022-09-02T04:41:59.157Z,15.91
2022-09-02T04:42:58.466Z,15.91
2022-09-02T04:43:59.401Z,15.91
2022-09-02T04:44:59.137Z,15.92
2022-09-02T04:45:58.593Z,15.91
2022-09-02T04:46:58.424Z,15.92
2022-09-02T04:47:58.418Z,15.91
2022-09-02T04:48:59.089Z,15.91
2022-09-02T04:49:59.070Z,15.92
2022-09-02T04:50:59.071Z,15.92
2022-09-02T04:51:59.048Z,15.91
2022-09-02T04:52:58.353Z,15.91
2022-09-02T04:53:59.033Z,15.91
2022-09-02T04:54:59.024Z,15.91
2022-09-02T04:55:59.013Z,15.91
2022-09-02T04:56:58.460Z,15.92
2022-09-02T04:57:58.989Z,15.92
2022-09-02T04:58:58.990Z,15.94
2022-09-02T04:59:58.987Z,15.94
2022-09-02T05:00:58.971Z,15.96
2022-09-02T05:01:58.994Z,15.97
2022-09-02T05:02:58.967Z,15.98
2022-09-02T05:03:58.242Z,16.00
2022-09-02T05:04:58.221Z,16.01
2022-09-02T05:05:58.881Z,16.01
2022-09-02T05:06:58.214Z,16.03
2022-09-02T05:07:58.881Z,16.04
2022-09-02T05:08:58.861Z,16.06
2022-09-02T05:09:58.854Z,16.07
2022-09-02T05:10:58.845Z,16.09
2022-09-02T05:11:58.202Z,16.11
2022-09-02T05:12:58.816Z,16.13
2022-09-02T05:13:58.181Z,16.14
2022-09-02T05:14:58.118Z,16.16
2022-09-02T05:15:58.128Z,16.18
2022-09-02T05:16:58.782Z,16.20
2022-09-02T05:17:58.834Z,16.22
2022-09-02T05:18:58.086Z,16.24
2022-09-02T05:19:58.747Z,16.26
2022-09-02T05:20:58.055Z,16.28
2022-09-02T05:21:58.722Z,16.30
2022-09-02T05:22:58.705Z,16.33
2022-09-02T05:23:58.138Z,16.36
2022-09-02T05:24:58.010Z,16.39
2022-09-02T05:25:57.987Z,16.42
2022-09-02T05:26:57.980Z,16.46
2022-09-02T05:27:57.987Z,16.49
2022-09-02T05:28:57.974Z,16.54
2022-09-02T05:29:58.610Z,16.59
2022-09-02T05:30:58.673Z,16.65
2022-09-02T05:31:59.362Z,16.72
2022-09-02T05:32:58.598Z,16.80
2022-09-02T05:33:58.601Z,16.89
2022-09-02T05:34:57.909Z,16.99
2022-09-02T05:35:57.957Z,17.14
2022-09-02T05:36:58.559Z,17.32
2022-09-02T05:38:00.907Z,17.59
2022-09-02T05:38:57.897Z,17.89
2022-09-02T05:39:57.848Z,18.19
2022-09-02T05:40:58.555Z,18.50
2022-09-02T05:41:57.860Z,18.89
2022-09-02T05:42:57.822Z,19.33
2022-09-02T05:43:59.079Z,19.79
2022-09-02T05:44:58.468Z,20.24
2022-09-02T05:45:57.930Z,20.68
2022-09-02T05:46:57.802Z,21.11
2022-09-02T05:47:57.785Z,21.53
2022-09-02T05:48:57.762Z,21.95
2022-09-02T05:49:57.763Z,22.27
2022-09-02T05:50:58.592Z,22.44
2022-09-02T05:51:58.402Z,22.61
2022-09-02T05:52:58.384Z,22.82
2022-09-02T05:53:57.734Z,23.15
2022-09-02T05:54:57.689Z,23.50
2022-09-02T05:55:57.667Z,23.79
2022-09-02T05:56:58.336Z,24.05
2022-09-02T05:57:58.348Z,24.36
2022-09-02T05:58:57.655Z,24.65
2022-09-02T05:59:58.308Z,24.91
2022-09-02T06:00:57.626Z,25.12
2022-09-02T06:01:58.330Z,25.31
2022-09-02T06:03:00.163Z,25.17
2022-09-02T06:03:57.595Z,24.73
2022-09-02T06:04:58.263Z,24.43
2022-09-02T06:05:58.406Z,24.55
2022-09-02T06:06:57.548Z,24.91
2022-09-02T06:07:58.218Z,25.22
2022-09-02T06:08:57.562Z,25.51
2022-09-02T06:09:58.205Z,25.78
2022-09-02T06:10:57.539Z,26.00
2022-09-02T06:11:57.538Z,26.19
2022-09-02T06:12:58.186Z,26.32
2022-09-02T06:13:58.404Z,26.28
2022-09-02T06:14:58.160Z,26.06
2022-09-02T06:15:57.464Z,25.57
2022-09-02T06:16:58.123Z,25.24
2022-09-02T06:17:57.565Z,25.38
2022-09-02T06:18:57.444Z,25.79
2022-09-02T06:19:59.344Z,26.15
2022-09-02T06:20:57.440Z,26.45
2022-09-02T06:21:58.071Z,26.77
2022-09-02T06:22:57.362Z,27.07
2022-09-02T06:23:58.053Z,27.37
2022-09-02T06:24:57.365Z,27.69
2022-09-02T06:25:58.074Z,27.99
2022-09-02T06:26:57.332Z,28.22
2022-09-02T06:27:58.007Z,28.44
2022-09-02T06:28:57.316Z,28.67
2022-09-02T06:29:59.236Z,28.85
2022-09-02T06:30:57.986Z,29.02
2022-09-02T06:31:57.286Z,29.20
2022-09-02T06:32:57.287Z,29.31
2022-09-02T06:33:57.293Z,29.42
2022-09-02T06:34:57.928Z,29.53
2022-09-02T06:35:57.910Z,29.62
2022-09-02T06:36:57.219Z,29.68
2022-09-02T06:37:57.893Z,29.83
2022-09-02T06:38:57.213Z,30.01
2022-09-02T06:39:57.881Z,30.12
2022-09-02T06:40:57.189Z,30.23
2022-09-02T06:41:57.854Z,30.39
2022-09-02T06:42:57.159Z,30.59
2022-09-02T06:43:57.143Z,30.78
2022-09-02T06:44:57.820Z,30.94
2022-09-02T06:45:57.176Z,31.08
2022-09-02T06:46:57.172Z,31.20
2022-09-02T06:47:57.132Z,31.37
2022-09-02T06:48:57.783Z,31.53
2022-09-02T06:49:57.771Z,31.71
2022-09-02T06:50:57.176Z,31.83
2022-09-02T06:51:57.759Z,31.89
2022-09-02T06:52:57.735Z,31.99
2022-09-02T06:53:57.141Z,32.07
2022-09-02T06:54:57.072Z,32.13
2022-09-02T06:55:57.695Z,32.22
2022-09-02T06:56:57.731Z,32.30
2022-09-02T06:57:56.990Z,32.41
2022-09-02T06:58:57.708Z,32.52
2022-09-02T07:00:02.203Z,32.67
2022-09-02T07:00:58.000Z,32.84
2022-09-02T07:01:57.763Z,33.02
2022-09-02T07:02:57.754Z,33.07
2022-09-02T07:03:56.928Z,33.07
2022-09-02T07:04:57.688Z,33.08
2022-09-02T07:05:56.967Z,33.13
2022-09-02T07:06:56.930Z,33.22
2022-09-02T07:07:56.901Z,33.37
2022-09-02T07:08:57.571Z,33.56
2022-09-02T07:09:57.574Z,33.72
2022-09-02T07:10:56.873Z,33.75
2022-09-02T07:12:00.862Z,33.76
2022-09-02T07:12:59.331Z,33.84
2022-09-02T07:13:57.502Z,33.96
2022-09-02T07:14:56.862Z,34.14
2022-09-02T07:15:57.490Z,34.20
2022-09-02T07:16:56.869Z,34.18
2022-09-02T07:17:57.000Z,34.19
2022-09-02T07:18:57.462Z,34.19
2022-09-02T07:19:56.819Z,34.18
2022-09-02T07:20:56.804Z,34.20
2022-09-02T07:21:56.755Z,34.27
2022-09-02T07:22:56.939Z,34.41
2022-09-02T07:23:57.422Z,34.53
2022-09-02T07:24:57.397Z,34.70
2022-09-02T07:25:57.396Z,34.92
2022-09-02T07:26:56.696Z,35.14
2022-09-02T07:27:57.357Z,35.35
2022-09-02T07:28:56.716Z,35.49
2022-09-02T07:29:57.337Z,35.55
2022-09-02T07:30:59.798Z,35.60
2022-09-02T07:31:57.360Z,35.69
2022-09-02T07:32:56.631Z,35.77
2022-09-02T07:33:57.313Z,35.87
2022-09-02T07:34:56.600Z,35.96
2022-09-02T07:35:56.660Z,36.06
2022-09-02T07:37:04.091Z,36.17
2022-09-02T07:37:58.262Z,36.35
2022-09-02T07:38:57.250Z,36.53
2022-09-02T07:39:56.540Z,36.68
2022-09-02T07:40:56.859Z,36.86
2022-09-02T07:41:57.212Z,37.03
2022-09-02T07:43:59.659Z,37.23
2022-09-02T07:44:57.184Z,37.26
2022-09-02T07:45:56.599Z,37.29
2022-09-02T07:46:57.154Z,37.32
2022-09-02T07:47:56.542Z,37.32
2022-09-02T07:48:57.143Z,37.34
2022-09-02T07:50:58.115Z,37.41
2022-09-02T07:51:56.450Z,37.44
2022-09-02T07:52:56.456Z,37.44
2022-09-02T07:53:57.110Z,37.42
2022-09-02T07:54:57.078Z,37.47
2022-09-02T07:55:57.066Z,37.54
2022-09-02T07:56:56.380Z,37.63
2022-09-02T07:57:56.378Z,37.70
2022-09-02T07:58:57.046Z,37.78
2022-09-02T07:59:56.399Z,37.88
2022-09-02T08:00:56.394Z,37.96
2022-09-02T08:01:56.337Z,38.03
2022-09-02T08:02:56.448Z,38.12
2022-09-02T08:03:56.388Z,38.22
2022-09-02T08:06:09.906Z,38.37
2022-09-02T08:07:10.377Z,38.57
2022-09-02T08:08:10.367Z,38.74
2022-09-02T08:09:07.929Z,38.88
2022-09-02T08:10:07.940Z,38.99
2022-09-02T08:11:08.886Z,39.11
2022-09-02T08:12:07.930Z,39.25
2022-09-02T08:13:09.844Z,39.39
2022-09-02T08:14:07.874Z,39.49
2022-09-02T08:15:07.879Z,39.58
2022-09-02T08:16:07.951Z,39.67
2022-09-02T08:17:10.284Z,39.76
2022-09-02T08:18:08.556Z,39.84
2022-09-02T08:19:10.745Z,39.92
2022-09-02T08:20:12.254Z,39.98
2022-09-02T08:21:07.795Z,40.03
2022-09-02T08:22:09.735Z,40.08
2022-09-02T08:23:18.459Z,40.14
2022-09-02T08:24:10.214Z,40.20
2022-09-02T08:25:10.196Z,40.25
2022-09-02T08:26:09.682Z,40.26
2022-09-02T08:27:08.434Z,40.22
2022-09-02T08:28:08.690Z,40.24
2022-09-02T08:29:08.416Z,40.29
2022-09-02T08:30:08.391Z,40.32
2022-09-02T08:31:07.698Z,40.33
2022-09-02T08:32:07.733Z,40.30
2022-09-02T08:33:08.398Z,40.27
2022-09-02T08:34:08.362Z,40.27
2022-09-02T08:35:08.350Z,40.28
2022-09-02T08:36:08.368Z,40.29
2022-09-02T08:37:08.322Z,40.28
2022-09-02T08:38:07.621Z,40.28
2022-09-02T08:39:07.610Z,40.32
2022-09-02T08:40:08.357Z,40.31
2022-09-02T08:41:08.282Z,40.21
2022-09-02T08:42:08.266Z,40.09
2022-09-02T08:43:07.581Z,39.96
2022-09-02T08:44:07.579Z,39.82
2022-09-02T08:45:08.012Z,39.68
2022-09-02T08:46:08.291Z,39.54
2022-09-02T08:47:08.212Z,39.39
2022-09-02T08:48:08.272Z,39.25
2022-09-02T08:49:07.549Z,39.13
2022-09-02T08:50:07.493Z,39.01
2022-09-02T08:51:08.176Z,38.88
2022-09-02T08:52:07.573Z,38.72
2022-09-02T08:53:07.447Z,38.59
2022-09-02T08:54:08.171Z,38.46
2022-09-02T08:55:08.125Z,38.34
2022-09-02T08:56:07.560Z,38.25
2022-09-02T08:57:08.106Z,38.17
2022-09-02T08:58:07.437Z,38.07
2022-09-02T08:59:07.448Z,37.95
2022-09-02T09:00:07.591Z,37.82
2022-09-02T09:01:08.091Z,37.69
2022-09-02T09:02:07.398Z,37.56
2022-09-02T09:03:07.573Z,37.44
2022-09-02T09:04:08.029Z,37.37
2022-09-02T09:05:08.018Z,37.23
2022-09-02T09:06:08.009Z,37.07
2022-09-02T09:07:08.003Z,36.93
2022-09-02T09:08:09.768Z,36.77
2022-09-02T09:09:07.983Z,36.63
2022-09-02T09:10:07.963Z,36.49
2022-09-02T09:11:07.300Z,36.35
2022-09-02T09:12:07.935Z,36.21
2022-09-02T09:13:07.940Z,36.11
2022-09-02T09:14:07.915Z,36.04
2022-09-02T09:15:07.269Z,36.01
2022-09-02T09:16:07.982Z,35.97
2022-09-02T09:17:07.204Z,35.92
2022-09-02T09:18:07.876Z,35.86
2022-09-02T09:19:08.828Z,35.80
2022-09-02T09:20:07.269Z,35.75
2022-09-02T09:21:07.923Z,35.70
2022-09-02T09:22:07.838Z,35.65
2022-09-02T09:23:07.822Z,35.61
2022-09-02T09:24:07.859Z,35.54
2022-09-02T09:25:07.136Z,35.46
2022-09-02T09:26:07.169Z,35.43
2022-09-02T09:27:07.787Z,35.42
2022-09-02T09:28:07.081Z,35.43
2022-09-02T09:29:07.059Z,35.42
2022-09-02T09:30:08.644Z,35.41
2022-09-02T09:31:07.071Z,35.39
2022-09-02T09:32:07.971Z,35.34
2022-09-02T09:33:07.034Z,35.30
2022-09-02T09:34:07.718Z,35.25
2022-09-02T09:35:07.012Z,35.21
2022-09-02T09:36:07.680Z,35.20
2022-09-02T09:37:07.012Z,35.16
2022-09-02T09:38:07.676Z,35.11
2022-09-02T09:39:07.235Z,34.98
2022-09-02T09:40:07.000Z,34.88
2022-09-02T09:41:07.640Z,34.80
2022-09-02T09:42:07.004Z,34.77
2022-09-02T09:43:14.323Z,34.77
2022-09-02T09:44:07.917Z,34.75
2022-09-02T09:45:06.902Z,34.77
2022-09-02T09:46:07.639Z,34.82
2022-09-02T09:47:06.946Z,34.89
2022-09-02T09:48:07.566Z,34.95
2022-09-02T09:49:07.546Z,35.00
2022-09-02T09:50:06.908Z,35.05
2022-09-02T09:51:07.518Z,35.08
2022-09-02T09:52:06.828Z,35.08
2022-09-02T09:53:06.839Z,35.08
2022-09-02T09:54:06.829Z,35.09
2022-09-02T09:55:06.809Z,35.11
2022-09-02T09:56:06.770Z,35.15
2022-09-02T09:57:06.797Z,35.22
2022-09-02T09:58:06.781Z,35.28
2022-09-02T09:59:06.781Z,35.34
2022-09-02T10:00:06.782Z,35.43
2022-09-02T10:01:08.427Z,35.48
2022-09-02T10:02:06.756Z,35.46
2022-09-02T10:03:06.805Z,35.43
2022-09-02T10:04:20.747Z,35.38
2022-09-02T10:05:07.724Z,35.34
2022-09-02T10:06:06.665Z,35.32
2022-09-02T10:07:06.654Z,35.31
2022-09-02T10:08:09.898Z,35.29
2022-09-02T10:09:08.326Z,35.31
2022-09-02T10:10:07.319Z,35.35
2022-09-02T10:11:07.285Z,35.36
2022-09-02T10:12:07.286Z,35.41
2022-09-02T10:13:06.663Z,35.47
2022-09-02T10:14:06.587Z,35.65
2022-09-02T10:15:06.580Z,35.88
2022-09-02T10:16:07.284Z,36.07
2022-09-02T10:17:06.587Z,36.19
2022-09-02T10:18:07.222Z,36.34
2022-09-02T10:19:06.547Z,36.59
2022-09-02T10:20:06.509Z,36.85
2022-09-02T10:21:15.634Z,37.17
2022-09-02T10:22:07.538Z,37.46
2022-09-02T10:23:07.169Z,37.69
2022-09-02T10:24:07.175Z,37.85
2022-09-02T10:25:06.466Z,37.93
2022-09-02T10:26:06.494Z,38.00
2022-09-02T10:27:07.135Z,38.06
2022-09-02T10:28:06.465Z,38.10
2022-09-02T10:29:08.381Z,38.10
2022-09-02T10:30:07.100Z,38.07
2022-09-02T10:31:06.440Z,37.98
2022-09-02T10:32:06.403Z,37.81
2022-09-02T10:33:06.374Z,37.52
2022-09-02T10:34:06.424Z,37.09
2022-09-02T10:35:07.035Z,36.55
2022-09-02T10:36:07.034Z,35.81
2022-09-02T10:37:06.326Z,34.96
2022-09-02T10:38:06.344Z,34.07
2022-09-02T10:39:06.308Z,33.20
2022-09-02T10:40:07.028Z,32.47
2022-09-02T10:41:06.316Z,31.85
2022-09-02T10:42:06.959Z,31.38
2022-09-02T10:43:07.069Z,30.98
2022-09-02T10:44:06.947Z,30.68
2022-09-02T10:45:06.955Z,30.47
2022-09-02T10:46:06.908Z,30.31
2022-09-02T10:47:06.978Z,30.17
2022-09-02T10:48:08.150Z,30.06
2022-09-02T10:49:06.200Z,29.94
2022-09-02T10:50:06.880Z,29.84
2022-09-02T10:51:06.881Z,29.77
2022-09-02T10:52:06.883Z,29.69
2022-09-02T10:53:09.406Z,29.61
2022-09-02T10:54:06.832Z,29.52
2022-09-02T10:55:06.156Z,29.44
2022-09-02T10:56:06.145Z,29.34
2022-09-02T10:57:06.804Z,29.24
2022-09-02T10:58:06.776Z,29.15
2022-09-02T10:59:06.120Z,29.04
2022-09-02T11:00:06.084Z,28.95
2022-09-02T11:01:06.103Z,28.86
2022-09-02T11:02:06.769Z,28.74
2022-09-02T11:03:06.809Z,28.61
2022-09-02T11:04:06.724Z,28.53
2022-09-02T11:05:06.046Z,28.46
2022-09-02T11:06:06.039Z,28.38
2022-09-02T11:07:06.703Z,28.33
2022-09-02T11:08:06.692Z,28.27
2022-09-02T11:09:06.677Z,28.21
2022-09-02T11:10:06.649Z,28.15
2022-09-02T11:11:06.650Z,28.08
2022-09-02T11:12:05.959Z,28.00
2022-09-02T11:13:05.969Z,27.95
2022-09-02T11:14:07.869Z,27.93
2022-09-02T11:15:06.625Z,27.90
2022-09-02T11:16:05.982Z,27.89
2022-09-02T11:17:05.903Z,27.86
2022-09-02T11:18:07.613Z,27.85
2022-09-02T11:19:06.574Z,27.84
2022-09-02T11:20:06.580Z,27.85
2022-09-02T11:21:05.953Z,27.87
2022-09-02T11:22:06.538Z,27.90
2022-09-02T11:23:05.834Z,27.95
2022-09-02T11:24:05.822Z,27.96
2022-09-02T11:25:06.503Z,27.98
2022-09-02T11:26:06.494Z,27.99
2022-09-02T11:27:11.843Z,28.01
2022-09-02T11:28:08.765Z,28.03
2022-09-02T11:29:05.784Z,28.05
2022-09-02T11:30:06.456Z,28.06
2022-09-02T11:31:05.757Z,28.11
2022-09-02T11:32:05.777Z,28.19
2022-09-02T11:33:06.416Z,28.24
2022-09-02T11:34:05.785Z,28.23
2022-09-02T11:35:06.397Z,28.21
2022-09-02T11:36:05.709Z,28.22
2022-09-02T11:37:06.389Z,28.27
2022-09-02T11:38:05.747Z,28.30
2022-09-02T11:39:07.140Z,28.30
2022-09-02T11:40:30.435Z,28.34
2022-09-02T11:42:07.382Z,28.48
2022-09-02T11:43:06.319Z,28.57
2022-09-02T11:44:05.646Z,28.65
2022-09-02T11:45:05.656Z,28.74
2022-09-02T11:46:05.713Z,28.78
2022-09-02T11:47:05.631Z,28.83
2022-09-02T11:48:05.612Z,28.84
2022-09-02T11:49:05.578Z,28.86
2022-09-02T11:50:06.237Z,28.89
2022-09-02T11:51:06.232Z,28.91
2022-09-02T11:52:05.593Z,28.94
2022-09-02T11:53:05.532Z,28.94
2022-09-02T11:54:06.445Z,28.91
2022-09-02T11:55:06.220Z,28.86
2022-09-02T11:56:06.174Z,28.81
2022-09-02T11:57:05.474Z,28.77
2022-09-02T11:58:05.495Z,28.74
2022-09-02T11:59:06.181Z,28.78
2022-09-02T12:00:06.126Z,28.86
2022-09-02T12:01:06.865Z,28.92
2022-09-02T12:02:07.107Z,28.96
2022-09-02T12:03:16.783Z,28.97
2022-09-02T12:05:07.540Z,29.02
2022-09-02T12:06:06.271Z,29.05
2022-09-02T12:07:08.703Z,29.04
2022-09-02T12:08:06.039Z,29.07
2022-09-02T12:09:06.031Z,29.10
2022-09-02T12:10:06.011Z,29.17
2022-09-02T12:11:06.003Z,29.28
2022-09-02T12:12:05.364Z,29.36
2022-09-02T12:13:08.185Z,29.46
2022-09-02T12:14:07.773Z,29.58
2022-09-02T12:15:06.244Z,29.63
2022-09-02T12:16:05.351Z,29.65
2022-09-02T12:17:07.776Z,29.67
2022-09-02T12:18:05.255Z,29.73
2022-09-02T12:19:05.920Z,29.79
2022-09-02T12:20:05.244Z,29.83
2022-09-02T12:21:05.905Z,29.86
2022-09-02T12:22:05.926Z,29.85
2022-09-02T12:23:05.887Z,29.81
2022-09-02T12:24:05.247Z,29.76
2022-09-02T12:25:05.860Z,29.74
2022-09-02T12:26:05.847Z,29.76
2022-09-02T12:27:05.846Z,29.77
2022-09-02T12:28:05.893Z,29.79
2022-09-02T12:29:05.161Z,29.83
2022-09-02T12:30:05.147Z,29.90
2022-09-02T12:31:05.830Z,29.88
2022-09-02T12:32:05.126Z,29.91
2022-09-02T12:33:05.796Z,29.95
2022-09-02T12:34:05.129Z,30.02
2022-09-02T12:35:05.180Z,30.09
2022-09-02T12:36:05.747Z,30.11
2022-09-02T12:37:05.732Z,30.06
2022-09-02T12:38:06.502Z,29.99
2022-09-02T12:39:08.049Z,29.99
2022-09-02T12:40:05.080Z,30.00
2022-09-02T12:41:07.724Z,30.02
2022-09-02T12:42:05.682Z,30.02
2022-09-02T12:43:05.675Z,30.08
2022-09-02T12:44:05.652Z,30.13
2022-09-02T12:45:04.994Z,30.16
2022-09-02T12:46:05.039Z,30.19
2022-09-02T12:47:05.624Z,30.20
2022-09-02T12:48:05.615Z,30.16
2022-09-02T12:49:06.875Z,30.16
2022-09-02T12:50:05.030Z,30.13
2022-09-02T12:51:05.576Z,30.13
2022-09-02T12:52:05.567Z,30.08
2022-09-02T12:53:04.895Z,30.05
2022-09-02T12:54:04.914Z,30.08
2022-09-02T12:55:05.556Z,30.06
2022-09-02T12:56:04.858Z,30.04
2022-09-02T12:57:05.519Z,30.04
2022-09-02T12:58:05.500Z,30.07